createdAt,value
2023-05-10T00:02:17.202Z,4.33
2023-05-10T00:04:50.315Z,4.31
2023-05-10T00:07:37.410Z,4.29
2023-05-10T00:10:11.314Z,4.24
2023-05-10T00:12:58.229Z,4.21
2023-05-10T00:15:35.662Z,4.23
2023-05-10T00:18:22.209Z,4.19
2023-05-10T00:20:55.294Z,4.17
2023-05-10T00:23:42.221Z,4.18
2023-05-10T00:26:15.963Z,4.13
2023-05-10T00:29:03.206Z,4.09
2023-05-10T00:31:36.360Z,4.08
2023-05-10T00:34:23.193Z,4.07
2023-05-10T00:36:57.205Z,4.04
2023-05-10T00:39:44.160Z,4.02
2023-05-10T00:42:24.371Z,3.98
2023-05-10T00:45:04.214Z,3.98
2023-05-10T00:47:44.349Z,3.95
2023-05-10T00:50:24.224Z,3.93
2023-05-10T00:53:06.298Z,3.91
2023-05-10T00:55:46.209Z,3.87
2023-05-10T00:58:35.243Z,3.86
2023-05-10T01:01:09.221Z,3.85
2023-05-10T01:03:56.229Z,3.82
2023-05-10T01:06:29.801Z,3.76
2023-05-10T01:09:16.220Z,3.73
2023-05-10T01:11:50.314Z,3.72
2023-05-10T01:14:37.343Z,3.71
2023-05-10T01:17:13.209Z,3.67
2023-05-10T01:20:00.231Z,3.63
2023-05-10T01:23:13.279Z,3.59
2023-05-10T01:26:39.230Z,3.54
2023-05-10T01:29:28.231Z,3.51
2023-05-10T01:32:29.261Z,3.49
2023-05-10T01:35:45.230Z,3.43
2023-05-10T01:38:55.228Z,3.45
2023-05-10T01:42:11.240Z,3.45
2023-05-10T01:45:15.222Z,3.45
2023-05-10T01:48:09.373Z,3.43
2023-05-10T01:50:58.250Z,3.41
2023-05-10T01:53:38.216Z,3.41
2023-05-10T01:56:31.225Z,3.42
2023-05-10T01:59:06.332Z,3.42
2023-05-10T02:01:55.245Z,3.41
2023-05-10T02:04:38.248Z,3.38
2023-05-10T02:07:26.303Z,3.34
2023-05-10T02:10:07.249Z,3.35
2023-05-10T02:12:56.316Z,3.31
2023-05-10T02:15:39.261Z,3.32
2023-05-10T02:18:33.227Z,3.31
2023-05-10T02:21:29.246Z,3.32
2023-05-10T02:24:24.226Z,3.28
2023-05-10T02:27:12.260Z,3.25
2023-05-10T02:29:46.396Z,3.21
2023-05-10T02:32:35.272Z,3.18
2023-05-10T02:35:17.255Z,3.16
2023-05-10T02:38:12.237Z,3.14
2023-05-10T02:41:00.255Z,3.12
2023-05-10T02:43:35.414Z,3.08
2023-05-10T02:46:22.303Z,3.06
2023-05-10T02:48:55.354Z,3.02
2023-05-10T02:51:45.248Z,2.98
2023-05-10T02:54:23.402Z,2.99
2023-05-10T02:57:13.293Z,2.99
2023-05-10T02:59:46.453Z,3.00
2023-05-10T03:02:33.501Z,2.99
2023-05-10T03:05:10.423Z,2.98
2023-05-10T03:07:58.268Z,2.97
2023-05-10T03:10:38.355Z,2.95
2023-05-10T03:13:40.310Z,2.90
2023-05-10T03:16:17.786Z,2.88
2023-05-10T03:19:16.275Z,2.87
2023-05-10T03:21:55.435Z,2.84
2023-05-10T03:24:44.263Z,2.83
2023-05-10T03:27:18.361Z,2.84
2023-05-10T03:30:05.280Z,2.84
2023-05-10T03:32:38.577Z,2.81
2023-05-10T03:35:25.286Z,2.81
2023-05-10T03:37:58.366Z,2.84
2023-05-10T03:40:45.272Z,2.79
2023-05-10T03:43:18.385Z,2.79
2023-05-10T03:46:05.300Z,2.80
2023-05-10T03:48:40.374Z,2.79
2023-05-10T03:51:27.283Z,2.82
2023-05-10T03:54:07.290Z,2.86
2023-05-10T03:56:55.282Z,2.90
2023-05-10T03:59:35.279Z,2.89
2023-05-10T04:02:29.410Z,2.90
2023-05-10T04:05:16.295Z,2.97
2023-05-10T04:07:57.307Z,3.01
2023-05-10T04:10:51.299Z,3.04
2023-05-10T04:13:38.311Z,3.08
2023-05-10T04:16:14.427Z,3.12
2023-05-10T04:19:01.297Z,3.17
2023-05-10T04:21:34.383Z,3.16
2023-05-10T04:24:21.292Z,3.17
2023-05-10T04:26:55.907Z,3.21
2023-05-10T04:29:44.305Z,3.31
2023-05-10T04:32:24.314Z,3.38
2023-05-10T04:35:18.301Z,3.51
2023-05-10T04:38:05.326Z,3.73
2023-05-10T04:40:38.414Z,3.96
2023-05-10T04:43:25.309Z,4.21
2023-05-10T04:46:05.356Z,4.44
2023-05-10T04:48:52.283Z,4.72
2023-05-10T04:51:25.479Z,4.99
2023-05-10T04:54:12.300Z,5.27
2023-05-10T04:56:45.447Z,5.51
2023-05-10T04:59:32.417Z,5.80
2023-05-10T05:02:05.825Z,6.07
2023-05-10T05:04:52.440Z,6.37
2023-05-10T05:07:25.450Z,6.64
2023-05-10T05:10:16.502Z,6.95
2023-05-10T05:12:50.630Z,7.23
2023-05-10T05:15:38.302Z,7.48
2023-05-10T05:18:11.482Z,7.75
2023-05-10T05:20:58.303Z,8.04
2023-05-10T05:23:31.445Z,8.29
2023-05-10T05:26:18.311Z,8.57
2023-05-10T05:29:02.395Z,8.86
2023-05-10T05:31:49.379Z,9.16
2023-05-10T05:34:23.142Z,9.42
2023-05-10T05:37:10.370Z,9.64
2023-05-10T05:39:43.520Z,9.86
2023-05-10T05:42:30.345Z,10.17
2023-05-10T05:45:03.478Z,10.41
2023-05-10T05:47:50.349Z,10.64
2023-05-10T05:50:33.331Z,10.86
2023-05-10T05:53:20.319Z,11.14
2023-05-10T05:56:04.710Z,11.33
2023-05-10T05:58:52.325Z,11.61
2023-05-10T06:01:25.458Z,11.85
2023-05-10T06:04:12.452Z,12.11
2023-05-10T06:06:45.449Z,12.31
2023-05-10T06:09:32.349Z,12.50
2023-05-10T06:12:06.099Z,12.73
2023-05-10T06:14:52.356Z,12.85
2023-05-10T06:17:26.244Z,13.01
2023-05-10T06:20:06.328Z,13.23
2023-05-10T06:22:46.603Z,13.45
2023-05-10T06:25:27.340Z,13.64
2023-05-10T06:28:07.363Z,13.64
2023-05-10T06:30:41.599Z,13.73
2023-05-10T06:33:28.341Z,13.75
2023-05-10T06:36:01.506Z,13.92
2023-05-10T06:38:48.356Z,14.11
2023-05-10T06:41:23.966Z,13.95
2023-05-10T06:44:11.338Z,14.12
2023-05-10T06:46:51.416Z,14.41
2023-05-10T06:49:38.358Z,14.21
2023-05-10T06:52:11.460Z,14.40
2023-05-10T06:54:58.365Z,14.56
2023-05-10T06:57:38.350Z,14.81
2023-05-10T07:00:33.420Z,14.99
2023-05-10T07:03:27.364Z,15.32
2023-05-10T07:06:32.296Z,15.46
2023-05-10T07:09:21.368Z,15.20
2023-05-10T07:12:01.363Z,15.26
2023-05-10T07:14:55.372Z,15.39
2023-05-10T07:17:49.501Z,15.56
2023-05-10T07:20:36.396Z,15.51
2023-05-10T07:23:09.499Z,15.55
2023-05-10T07:25:59.385Z,15.88
2023-05-10T07:28:32.512Z,16.08
2023-05-10T07:31:19.384Z,16.12
2023-05-10T07:33:52.549Z,16.35
2023-05-10T07:36:40.406Z,16.68
2023-05-10T07:39:18.639Z,16.77
2023-05-10T07:42:11.385Z,17.00
2023-05-10T07:44:44.515Z,17.11
2023-05-10T07:47:31.465Z,17.34
2023-05-10T07:50:04.882Z,17.45
2023-05-10T07:52:51.396Z,17.28
2023-05-10T07:55:27.188Z,17.38
2023-05-10T07:58:14.417Z,17.53
2023-05-10T08:00:47.613Z,17.68
2023-05-10T08:03:34.415Z,17.88
2023-05-10T08:06:07.507Z,18.09
2023-05-10T08:08:57.391Z,18.17
2023-05-10T08:11:37.409Z,18.29
2023-05-10T08:14:24.397Z,18.62
2023-05-10T08:16:57.549Z,18.92
2023-05-10T08:19:44.392Z,19.07
2023-05-10T08:22:24.402Z,18.92
2023-05-10T08:25:18.584Z,18.99
2023-05-10T08:28:05.412Z,19.16
2023-05-10T08:30:45.383Z,19.43
2023-05-10T08:33:39.651Z,19.54
2023-05-10T08:36:29.389Z,19.50
2023-05-10T08:39:16.192Z,19.80
2023-05-10T08:42:16.415Z,19.99
2023-05-10T08:45:12.424Z,20.15
2023-05-10T08:48:06.456Z,20.18
2023-05-10T08:50:55.429Z,20.52
2023-05-10T08:53:30.526Z,20.48
2023-05-10T08:56:17.432Z,20.66
2023-05-10T08:58:50.797Z,20.40
2023-05-10T09:01:39.417Z,20.23
2023-05-10T09:04:13.232Z,20.30
2023-05-10T09:07:00.442Z,20.52
2023-05-10T09:09:34.534Z,20.76
2023-05-10T09:12:23.430Z,20.88
2023-05-10T09:15:05.463Z,20.94
2023-05-10T09:18:00.574Z,21.45
2023-05-10T09:20:47.433Z,21.52
2023-05-10T09:23:27.466Z,21.36
2023-05-10T09:26:15.443Z,21.40
2023-05-10T09:29:06.424Z,21.17
2023-05-10T09:31:58.465Z,21.42
2023-05-10T09:34:42.211Z,21.61
2023-05-10T09:37:37.458Z,21.87
2023-05-10T09:40:14.561Z,21.99
2023-05-10T09:43:04.501Z,21.73
2023-05-10T09:45:41.554Z,21.66
2023-05-10T09:48:31.458Z,21.45
2023-05-10T09:51:12.488Z,21.12
2023-05-10T09:54:31.485Z,21.23
2023-05-10T09:57:35.250Z,20.92
2023-05-10T10:00:33.471Z,20.27
2023-05-10T10:03:25.495Z,20.10
2023-05-10T10:05:58.522Z,20.52
2023-05-10T10:08:45.488Z,20.01
2023-05-10T10:11:18.603Z,19.20
2023-05-10T10:14:05.494Z,19.89
2023-05-10T10:16:45.961Z,20.34
2023-05-10T10:19:43.481Z,20.71
2023-05-10T10:22:16.664Z,21.15
2023-05-10T10:25:03.500Z,21.50
2023-05-10T10:27:56.617Z,21.60
2023-05-10T10:30:50.487Z,21.88
2023-05-10T10:33:38.758Z,22.05
2023-05-10T10:36:26.504Z,21.96
2023-05-10T10:39:02.438Z,21.47
2023-05-10T10:42:04.510Z,21.14
2023-05-10T10:44:38.021Z,20.94
2023-05-10T10:47:31.506Z,20.30
2023-05-10T10:50:07.958Z,20.72
2023-05-10T10:52:56.518Z,21.06
2023-05-10T10:55:30.941Z,21.04
2023-05-10T10:58:17.502Z,21.29
2023-05-10T11:00:50.677Z,21.05
2023-05-10T11:03:37.502Z,21.18
2023-05-10T11:06:10.625Z,21.35
2023-05-10T11:09:00.516Z,21.27
2023-05-10T11:11:33.664Z,21.74
2023-05-10T11:14:20.572Z,22.32
2023-05-10T11:17:00.618Z,22.18
2023-05-10T11:20:36.522Z,22.07
2023-05-10T11:23:30.529Z,21.74
2023-05-10T11:26:24.492Z,22.07
2023-05-10T11:29:12.578Z,22.28
2023-05-10T11:31:57.513Z,21.78
2023-05-10T11:34:44.522Z,21.11
2023-05-10T11:37:24.527Z,20.70
2023-05-10T11:40:18.861Z,20.22
2023-05-10T11:43:05.588Z,20.02
2023-05-10T11:45:49.637Z,19.79
2023-05-10T11:48:37.537Z,19.99
2023-05-10T11:51:11.053Z,20.42
2023-05-10T11:54:00.627Z,20.63
2023-05-10T11:56:33.660Z,20.60
2023-05-10T11:59:22.551Z,20.38
2023-05-10T12:01:55.872Z,20.22
2023-05-10T12:04:42.599Z,20.13
2023-05-10T12:07:16.740Z,19.88
2023-05-10T12:10:22.541Z,19.57
2023-05-10T12:12:55.696Z,19.20
2023-05-10T12:15:42.550Z,19.03
2023-05-10T12:18:17.763Z,18.66
2023-05-10T12:21:11.581Z,18.43
2023-05-10T12:24:00.571Z,18.32
2023-05-10T12:29:58.565Z,18.10
2023-05-10T12:32:58.636Z,17.96
2023-05-10T12:36:01.565Z,17.91
2023-05-10T12:38:57.580Z,17.75
2023-05-10T12:41:45.564Z,17.64
2023-05-10T12:44:25.548Z,17.55
2023-05-10T12:47:13.567Z,17.40
2023-05-10T12:49:53.551Z,17.30
2023-05-10T12:52:40.622Z,17.09
2023-05-10T12:55:14.673Z,16.95
2023-05-10T12:58:01.626Z,16.91
2023-05-10T13:00:34.691Z,16.87
2023-05-10T13:03:23.576Z,16.86
2023-05-10T13:06:03.595Z,16.82
2023-05-10T13:08:57.654Z,16.76
2023-05-10T13:11:51.598Z,16.76
2023-05-10T13:14:45.576Z,16.75
2023-05-10T13:17:34.293Z,16.76
2023-05-10T13:20:17.279Z,16.75
2023-05-10T13:23:11.590Z,16.70
2023-05-10T13:26:05.613Z,16.63
2023-05-10T13:28:53.619Z,16.53
2023-05-10T13:31:26.820Z,16.44
2023-05-10T13:34:13.631Z,16.41
2023-05-10T13:36:53.613Z,16.48
2023-05-10T13:39:47.620Z,16.48
2023-05-10T13:42:34.615Z,16.48
2023-05-10T13:45:08.824Z,16.40
2023-05-10T13:47:55.663Z,16.35
2023-05-10T13:50:28.890Z,16.25
2023-05-10T13:53:15.629Z,16.24
2023-05-10T13:55:48.796Z,16.07
2023-05-10T13:58:35.571Z,16.01
2023-05-10T14:01:08.776Z,16.10
2023-05-10T14:03:55.709Z,16.13
2023-05-10T14:06:28.722Z,16.19
2023-05-10T14:09:15.620Z,16.29
2023-05-10T14:11:49.013Z,16.29
2023-05-10T14:14:36.663Z,16.23
2023-05-10T14:17:12.115Z,16.20
2023-05-10T14:20:00.628Z,16.22
2023-05-10T14:22:33.821Z,16.26
2023-05-10T14:25:27.649Z,16.28
2023-05-10T14:28:21.744Z,16.27
2023-05-10T14:31:08.636Z,16.26
2023-05-10T14:33:48.643Z,16.26
2023-05-10T14:36:42.641Z,16.23
2023-05-10T14:39:30.664Z,16.29
2023-05-10T14:42:04.962Z,16.25
2023-05-10T14:44:51.635Z,16.19
2023-05-10T14:47:24.946Z,16.15
2023-05-10T14:50:14.789Z,16.15
2023-05-10T14:52:54.762Z,16.12
2023-05-10T14:55:42.652Z,16.10
2023-05-10T14:58:15.818Z,16.06
2023-05-10T15:01:02.715Z,16.01
2023-05-10T15:03:42.697Z,15.99
2023-05-10T15:06:38.627Z,15.96
2023-05-10T15:09:18.652Z,15.89
2023-05-10T15:12:12.628Z,15.86
2023-05-10T15:14:59.655Z,15.88
2023-05-10T15:17:32.818Z,15.91
2023-05-10T15:20:19.634Z,15.90
2023-05-10T15:22:52.773Z,15.91
2023-05-10T15:25:42.645Z,15.90
2023-05-10T15:28:15.787Z,15.90
2023-05-10T15:31:03.662Z,15.93
2023-05-10T15:33:43.653Z,15.96
2023-05-10T15:36:37.658Z,15.93
2023-05-10T15:39:24.678Z,15.90
2023-05-10T15:41:58.827Z,15.92
2023-05-10T15:44:45.667Z,15.90
2023-05-10T15:47:18.816Z,15.81
2023-05-10T15:50:05.678Z,15.80
2023-05-10T15:52:38.743Z,15.71
2023-05-10T15:55:26.667Z,15.63
2023-05-10T15:58:06.670Z,15.59
2023-05-10T16:01:00.771Z,15.54
2023-05-10T16:03:47.701Z,15.47
2023-05-10T16:06:27.811Z,15.48
2023-05-10T16:09:14.757Z,15.49
2023-05-10T16:11:49.836Z,15.44
2023-05-10T16:14:38.705Z,15.41
2023-05-10T16:17:18.812Z,15.44
2023-05-10T16:20:05.745Z,15.43
2023-05-10T16:22:38.860Z,15.37
2023-05-10T16:25:28.780Z,15.30
2023-05-10T16:28:08.749Z,15.29
2023-05-10T16:31:02.919Z,15.18
2023-05-10T16:33:49.724Z,15.12
2023-05-10T16:36:22.930Z,15.07
2023-05-10T16:39:10.689Z,14.92
2023-05-10T16:41:43.849Z,14.89
2023-05-10T16:44:30.705Z,14.88
2023-05-10T16:47:03.874Z,14.85
2023-05-10T16:49:50.728Z,14.78
2023-05-10T16:52:23.933Z,14.76
2023-05-10T16:55:10.705Z,14.72
2023-05-10T16:57:43.868Z,14.69
2023-05-10T17:00:30.755Z,14.64
2023-05-10T17:03:10.776Z,14.60
2023-05-10T17:06:05.740Z,14.55
2023-05-10T17:08:59.719Z,14.51
2023-05-10T17:11:46.915Z,14.46
2023-05-10T17:14:19.879Z,14.41
2023-05-10T17:17:13.705Z,14.35
2023-05-10T17:19:53.723Z,14.31
2023-05-10T17:22:47.777Z,14.23
2023-05-10T17:25:41.786Z,14.16
2023-05-10T17:28:35.775Z,14.13
2023-05-10T17:31:22.805Z,14.05
2023-05-10T17:33:55.904Z,14.00
2023-05-10T17:36:42.818Z,13.89
2023-05-10T17:39:18.403Z,13.77
2023-05-10T17:42:04.742Z,13.66
2023-05-10T17:44:37.859Z,13.53
2023-05-10T17:47:25.876Z,13.42
2023-05-10T17:50:06.724Z,13.30
2023-05-10T17:52:53.746Z,13.18
2023-05-10T17:55:33.719Z,13.08
2023-05-10T17:58:20.745Z,12.96
2023-05-10T18:01:00.803Z,12.85
2023-05-10T18:03:55.724Z,12.73
2023-05-10T18:06:43.789Z,12.62
2023-05-10T18:09:17.996Z,12.51
2023-05-10T18:12:04.744Z,12.42
2023-05-10T18:14:41.128Z,12.29
2023-05-10T18:17:28.764Z,12.17
2023-05-10T18:20:02.293Z,12.03
2023-05-10T18:22:48.805Z,11.89
2023-05-10T18:25:21.862Z,11.82
2023-05-10T18:28:08.749Z,11.77
2023-05-10T18:30:41.854Z,11.64
2023-05-10T18:33:28.831Z,11.56
2023-05-10T18:36:02.434Z,11.42
2023-05-10T18:38:48.771Z,11.29
2023-05-10T18:41:28.852Z,11.23
2023-05-10T18:44:22.761Z,11.16
2023-05-10T18:47:16.756Z,11.12
2023-05-10T18:50:04.757Z,11.01
2023-05-10T18:52:37.996Z,10.90
2023-05-10T18:55:25.804Z,10.85
2023-05-10T18:58:05.787Z,10.78
2023-05-10T19:00:52.741Z,10.73
2023-05-10T19:03:27.105Z,10.63
2023-05-10T19:06:13.777Z,10.53
2023-05-10T19:08:46.887Z,10.47
2023-05-10T19:11:33.771Z,10.39
2023-05-10T19:14:07.967Z,10.34
2023-05-10T19:16:54.928Z,10.25
2023-05-10T19:19:37.441Z,10.17
2023-05-10T19:25:27.862Z,9.96
2023-05-10T19:28:14.762Z,9.91
2023-05-10T19:30:55.857Z,9.86
2023-05-10T19:33:49.725Z,9.77
2023-05-10T19:36:37.851Z,9.66
2023-05-10T19:39:10.901Z,9.57
2023-05-10T19:41:57.805Z,9.47
2023-05-10T19:44:34.138Z,9.41
2023-05-10T19:47:20.764Z,9.33
2023-05-10T19:49:55.892Z,9.31
2023-05-10T19:52:42.785Z,9.26
2023-05-10T19:55:22.816Z,9.24
2023-05-10T19:58:11.811Z,9.16
2023-05-10T20:00:51.811Z,9.09
2023-05-10T20:03:45.838Z,9.04
2023-05-10T20:06:32.810Z,9.02
2023-05-10T20:09:05.962Z,8.97
2023-05-10T20:11:52.793Z,8.87
2023-05-10T20:14:32.817Z,8.78
2023-05-10T20:17:26.852Z,8.71
2023-05-10T20:20:16.084Z,8.67
2023-05-10T20:22:50.992Z,8.62
2023-05-10T20:25:44.819Z,8.53
2023-05-10T20:28:32.811Z,8.45
2023-05-10T20:31:06.038Z,8.39
2023-05-10T20:33:52.880Z,8.31
2023-05-10T20:36:33.813Z,8.26
2023-05-10T20:39:27.794Z,8.18
2023-05-10T20:42:14.803Z,8.13
2023-05-10T20:44:54.818Z,8.10
2023-05-10T20:47:49.880Z,8.07
2023-05-10T20:50:44.804Z,8.01
2023-05-10T20:53:31.811Z,7.93
2023-05-10T20:56:11.805Z,7.86
2023-05-10T20:59:05.821Z,7.80
2023-05-10T21:01:59.992Z,7.71
2023-05-10T21:04:56.333Z,7.64
2023-05-10T21:07:51.840Z,7.57
2023-05-10T21:10:45.808Z,7.52
2023-05-10T21:13:32.853Z,7.46
2023-05-10T21:16:05.937Z,7.40
2023-05-10T21:18:52.862Z,7.36
2023-05-10T21:21:25.988Z,7.27
2023-05-10T21:24:13.816Z,7.21
2023-05-10T21:27:07.833Z,7.17
2023-05-10T21:29:54.836Z,7.11
2023-05-10T21:32:28.016Z,7.10
2023-05-10T21:35:14.832Z,7.07
2023-05-10T21:37:47.984Z,7.03
2023-05-10T21:40:35.833Z,6.99
2023-05-10T21:43:09.642Z,6.93
2023-05-10T21:45:56.902Z,6.88
2023-05-10T21:48:29.980Z,6.84
2023-05-10T21:51:16.843Z,6.82
2023-05-10T21:53:56.839Z,6.79
2023-05-10T21:56:43.827Z,6.72
2023-05-10T21:59:18.124Z,6.69
2023-05-10T22:02:04.887Z,6.64
2023-05-10T22:04:44.833Z,6.65
2023-05-10T22:07:31.837Z,6.59
2023-05-10T22:10:11.846Z,6.54
2023-05-10T22:12:58.849Z,6.52
2023-05-10T22:15:39.827Z,6.47
2023-05-10T22:18:33.885Z,6.43
2023-05-10T22:21:27.867Z,6.41
2023-05-10T22:24:21.866Z,6.36
2023-05-10T22:27:15.840Z,6.33
2023-05-10T22:30:02.854Z,6.32
2023-05-10T22:32:38.167Z,6.26
2023-05-10T22:35:24.851Z,6.21
2023-05-10T22:37:58.006Z,6.19
2023-05-10T22:40:45.860Z,6.16
2023-05-10T22:43:18.953Z,6.13
2023-05-10T22:46:05.915Z,6.07
2023-05-10T22:48:41.506Z,6.05
2023-05-10T22:51:27.858Z,6.03
2023-05-10T22:54:00.999Z,5.99
2023-05-10T22:56:47.976Z,5.95
2023-05-10T22:59:21.045Z,5.92
2023-05-10T23:02:07.948Z,5.88
2023-05-10T23:04:41.067Z,5.86
2023-05-10T23:07:30.846Z,5.81
2023-05-10T23:10:10.885Z,5.76
2023-05-10T23:12:57.853Z,5.69
2023-05-10T23:15:33.118Z,5.62
2023-05-10T23:18:19.909Z,5.60
2023-05-10T23:20:53.202Z,5.58
2023-05-10T23:23:40.900Z,5.52
2023-05-10T23:26:20.884Z,5.50
2023-05-10T23:29:14.875Z,5.44
2023-05-10T23:32:08.956Z,5.44
2023-05-10T23:34:55.853Z,5.38
2023-05-10T23:37:35.837Z,5.36
2023-05-10T23:40:22.883Z,5.31
2023-05-10T23:43:02.887Z,5.30
2023-05-10T23:45:49.902Z,5.30
2023-05-10T23:48:29.895Z,5.27
2023-05-10T23:51:23.913Z,5.25
2023-05-10T23:54:10.888Z,5.22
2023-05-10T23:56:46.671Z,5.18
2023-05-10T23:59:32.891Z,5.16
